Terminal Aerodrome Forecast
Issued by NWS

Home | Current Version | Previous Version | Graphics & Text | Print | Product List | Glossary On
Versions: 1 2 3 4 5 6 7 8 9 10 11 12 13 14 15 16 17 18 19
000
FTUS43 KGRB 290259 AAA
TAFMTW
TAF AMD
KMTW 290259Z 2903/2924 15003KT 3SM BR SCT002
      TEMPO 2903/2907 1/2SM FG BKN002
     FM290900 VRB03KT 1/2SM FG OVC002
     FM291400 16007KT P6SM BKN025
     FM291700 15009KT P6SM SCT035=

USA.gov is the U.S. government's official web portal to all federal, state and local government web resources and services.